sensor_id;sensor_type;location;lat;lon;timestamp;P1;durP1;ratioP1;P2;durP2;ratioP2
7150;SDS011;3617;48.836;9.172;2023-07-28T00:00:52;4.17;;;2.10;;
7150;SDS011;3617;48.836;9.172;2023-07-28T00:03:18;4.17;;;2.20;;
7150;SDS011;3617;48.836;9.172;2023-07-28T00:05:44;4.23;;;2.10;;
7150;SDS011;3617;48.836;9.172;2023-07-28T00:08:10;3.27;;;1.90;;
7150;SDS011;3617;48.836;9.172;2023-07-28T00:10:40;2.97;;;1.93;;
7150;SDS011;3617;48.836;9.172;2023-07-28T00:13:07;4.17;;;2.33;;
7150;SDS011;3617;48.836;9.172;2023-07-28T00:15:33;3.30;;;2.20;;
7150;SDS011;3617;48.836;9.172;2023-07-28T00:17:59;2.93;;;1.93;;
7150;SDS011;3617;48.836;9.172;2023-07-28T00:20:26;4.20;;;1.90;;
7150;SDS011;3617;48.836;9.172;2023-07-28T00:22:53;2.70;;;2.00;;
7150;SDS011;3617;48.836;9.172;2023-07-28T00:25:19;3.53;;;1.90;;
7150;SDS011;3617;48.836;9.172;2023-07-28T00:27:45;3.10;;;2.00;;
7150;SDS011;3617;48.836;9.172;2023-07-28T00:30:11;2.47;;;2.00;;
7150;SDS011;3617;48.836;9.172;2023-07-28T00:32:37;2.90;;;2.30;;
7150;SDS011;3617;48.836;9.172;2023-07-28T00:35:03;3.83;;;2.20;;
7150;SDS011;3617;48.836;9.172;2023-07-28T00:37:30;3.93;;;2.23;;
7150;SDS011;3617;48.836;9.172;2023-07-28T00:39:56;2.67;;;1.87;;
7150;SDS011;3617;48.836;9.172;2023-07-28T00:42:22;2.43;;;1.83;;
7150;SDS011;3617;48.836;9.172;2023-07-28T00:44:48;2.63;;;2.03;;
7150;SDS011;3617;48.836;9.172;2023-07-28T00:47:13;2.97;;;2.03;;
7150;SDS011;3617;48.836;9.172;2023-07-28T00:49:40;2.63;;;2.07;;
7150;SDS011;3617;48.836;9.172;2023-07-28T00:52:07;3.97;;;2.17;;
7150;SDS011;3617;48.836;9.172;2023-07-28T00:54:33;3.27;;;2.23;;
7150;SDS011;3617;48.836;9.172;2023-07-28T00:56:59;2.97;;;2.17;;
7150;SDS011;3617;48.836;9.172;2023-07-28T00:59:26;2.13;;;1.60;;
7150;SDS011;3617;48.836;9.172;2023-07-28T01:01:52;3.50;;;2.10;;
7150;SDS011;3617;48.836;9.172;2023-07-28T01:04:18;2.90;;;1.97;;
7150;SDS011;3617;48.836;9.172;2023-07-28T01:06:57;2.60;;;1.80;;
7150;SDS011;3617;48.836;9.172;2023-07-28T01:09:29;3.00;;;2.00;;
7150;SDS011;3617;48.836;9.172;2023-07-28T01:12:00;2.83;;;1.97;;
7150;SDS011;3617;48.836;9.172;2023-07-28T01:14:27;2.10;;;1.90;;
7150;SDS011;3617;48.836;9.172;2023-07-28T01:16:52;2.50;;;1.70;;
7150;SDS011;3617;48.836;9.172;2023-07-28T01:19:20;3.03;;;1.80;;
7150;SDS011;3617;48.836;9.172;2023-07-28T01:21:48;2.10;;;1.50;;
7150;SDS011;3617;48.836;9.172;2023-07-28T01:24:19;2.53;;;2.17;;
7150;SDS011;3617;48.836;9.172;2023-07-28T01:26:46;1.93;;;1.70;;
7150;SDS011;3617;48.836;9.172;2023-07-28T01:29:13;2.20;;;1.97;;
7150;SDS011;3617;48.836;9.172;2023-07-28T01:31:40;3.93;;;1.80;;
7150;SDS011;3617;48.836;9.172;2023-07-28T01:34:06;2.27;;;1.50;;
7150;SDS011;3617;48.836;9.172;2023-07-28T01:36:32;2.23;;;1.70;;
7150;SDS011;3617;48.836;9.172;2023-07-28T01:38:58;2.73;;;1.77;;
7150;SDS011;3617;48.836;9.172;2023-07-28T01:41:24;2.50;;;1.73;;
7150;SDS011;3617;48.836;9.172;2023-07-28T01:43:50;2.47;;;1.77;;
7150;SDS011;3617;48.836;9.172;2023-07-28T01:46:17;2.30;;;1.90;;
7150;SDS011;3617;48.836;9.172;2023-07-28T01:48:42;1.63;;;1.37;;
7150;SDS011;3617;48.836;9.172;2023-07-28T01:51:08;2.77;;;1.90;;
7150;SDS011;3617;48.836;9.172;2023-07-28T01:53:34;2.17;;;1.67;;
7150;SDS011;3617;48.836;9.172;2023-07-28T01:56:00;1.73;;;1.57;;
7150;SDS011;3617;48.836;9.172;2023-07-28T01:58:26;2.40;;;1.70;;
7150;SDS011;3617;48.836;9.172;2023-07-28T02:00:52;2.53;;;1.83;;
7150;SDS011;3617;48.836;9.172;2023-07-28T02:03:19;3.57;;;1.87;;
7150;SDS011;3617;48.836;9.172;2023-07-28T02:05:45;2.63;;;1.90;;
7150;SDS011;3617;48.836;9.172;2023-07-28T02:08:11;3.33;;;1.63;;
7150;SDS011;3617;48.836;9.172;2023-07-28T02:10:37;2.37;;;1.90;;
7150;SDS011;3617;48.836;9.172;2023-07-28T02:13:03;2.10;;;1.70;;
7150;SDS011;3617;48.836;9.172;2023-07-28T02:15:29;2.87;;;1.70;;
7150;SDS011;3617;48.836;9.172;2023-07-28T02:17:55;2.13;;;1.57;;
7150;SDS011;3617;48.836;9.172;2023-07-28T02:20:21;1.90;;;1.70;;
7150;SDS011;3617;48.836;9.172;2023-07-28T02:22:47;2.10;;;1.63;;
7150;SDS011;3617;48.836;9.172;2023-07-28T02:25:13;3.13;;;2.00;;
7150;SDS011;3617;48.836;9.172;2023-07-28T02:27:39;3.70;;;2.43;;
7150;SDS011;3617;48.836;9.172;2023-07-28T02:30:06;2.90;;;1.80;;
7150;SDS011;3617;48.836;9.172;2023-07-28T02:32:32;2.80;;;1.90;;
7150;SDS011;3617;48.836;9.172;2023-07-28T02:34:58;1.73;;;1.63;;
7150;SDS011;3617;48.836;9.172;2023-07-28T02:37:24;3.57;;;2.20;;
7150;SDS011;3617;48.836;9.172;2023-07-28T02:39:50;2.37;;;1.80;;
7150;SDS011;3617;48.836;9.172;2023-07-28T02:42:16;2.03;;;1.67;;
7150;SDS011;3617;48.836;9.172;2023-07-28T02:44:42;3.97;;;1.77;;
7150;SDS011;3617;48.836;9.172;2023-07-28T02:47:08;4.90;;;1.80;;
7150;SDS011;3617;48.836;9.172;2023-07-28T02:49:34;3.33;;;2.00;;
7150;SDS011;3617;48.836;9.172;2023-07-28T02:52:00;2.40;;;1.73;;
7150;SDS011;3617;48.836;9.172;2023-07-28T02:54:28;2.13;;;1.80;;
7150;SDS011;3617;48.836;9.172;2023-07-28T02:56:54;3.20;;;1.87;;
7150;SDS011;3617;48.836;9.172;2023-07-28T02:59:21;2.53;;;1.90;;
7150;SDS011;3617;48.836;9.172;2023-07-28T03:01:48;2.50;;;2.00;;
7150;SDS011;3617;48.836;9.172;2023-07-28T03:04:16;1.73;;;1.47;;
7150;SDS011;3617;48.836;9.172;2023-07-28T03:06:44;2.60;;;1.90;;
7150;SDS011;3617;48.836;9.172;2023-07-28T03:09:10;3.70;;;2.07;;
7150;SDS011;3617;48.836;9.172;2023-07-28T03:11:36;3.07;;;2.27;;
7150;SDS011;3617;48.836;9.172;2023-07-28T03:14:02;5.00;;;1.93;;
7150;SDS011;3617;48.836;9.172;2023-07-28T03:16:28;3.17;;;2.10;;
7150;SDS011;3617;48.836;9.172;2023-07-28T03:18:54;1.93;;;1.63;;
7150;SDS011;3617;48.836;9.172;2023-07-28T03:21:20;2.67;;;2.13;;
7150;SDS011;3617;48.836;9.172;2023-07-28T03:23:46;4.97;;;2.00;;
7150;SDS011;3617;48.836;9.172;2023-07-28T03:26:12;3.23;;;2.10;;
7150;SDS011;3617;48.836;9.172;2023-07-28T03:28:38;3.90;;;2.10;;
7150;SDS011;3617;48.836;9.172;2023-07-28T03:31:04;2.27;;;1.80;;
7150;SDS011;3617;48.836;9.172;2023-07-28T03:33:30;3.50;;;2.00;;
7150;SDS011;3617;48.836;9.172;2023-07-28T03:35:56;3.10;;;2.07;;
7150;SDS011;3617;48.836;9.172;2023-07-28T03:38:22;4.47;;;2.00;;
7150;SDS011;3617;48.836;9.172;2023-07-28T03:40:49;2.97;;;1.90;;
7150;SDS011;3617;48.836;9.172;2023-07-28T03:43:15;3.63;;;2.13;;
7150;SDS011;3617;48.836;9.172;2023-07-28T03:45:41;2.07;;;1.60;;
7150;SDS011;3617;48.836;9.172;2023-07-28T03:48:07;2.13;;;1.90;;
7150;SDS011;3617;48.836;9.172;2023-07-28T03:50:33;3.17;;;1.97;;
7150;SDS011;3617;48.836;9.172;2023-07-28T03:52:59;2.17;;;1.83;;
7150;SDS011;3617;48.836;9.172;2023-07-28T03:55:25;3.10;;;1.93;;
7150;SDS011;3617;48.836;9.172;2023-07-28T03:57:51;2.13;;;1.80;;
7150;SDS011;3617;48.836;9.172;2023-07-28T04:00:17;3.40;;;1.73;;
7150;SDS011;3617;48.836;9.172;2023-07-28T04:02:43;3.63;;;2.13;;
7150;SDS011;3617;48.836;9.172;2023-07-28T04:05:09;2.93;;;1.83;;
7150;SDS011;3617;48.836;9.172;2023-07-28T04:07:35;2.87;;;1.70;;
7150;SDS011;3617;48.836;9.172;2023-07-28T04:10:01;3.53;;;2.20;;
7150;SDS011;3617;48.836;9.172;2023-07-28T04:12:27;2.37;;;1.90;;
7150;SDS011;3617;48.836;9.172;2023-07-28T04:14:53;2.63;;;2.00;;
7150;SDS011;3617;48.836;9.172;2023-07-28T04:17:19;3.73;;;2.20;;
7150;SDS011;3617;48.836;9.172;2023-07-28T04:19:45;2.77;;;1.80;;
7150;SDS011;3617;48.836;9.172;2023-07-28T04:22:11;2.43;;;1.67;;
7150;SDS011;3617;48.836;9.172;2023-07-28T04:24:38;4.03;;;1.87;;
7150;SDS011;3617;48.836;9.172;2023-07-28T04:27:04;3.47;;;2.10;;
7150;SDS011;3617;48.836;9.172;2023-07-28T04:29:30;3.10;;;2.33;;
7150;SDS011;3617;48.836;9.172;2023-07-28T04:31:56;8.87;;;3.90;;
7150;SDS011;3617;48.836;9.172;2023-07-28T04:34:23;8.33;;;4.30;;
7150;SDS011;3617;48.836;9.172;2023-07-28T04:36:49;9.53;;;5.27;;
7150;SDS011;3617;48.836;9.172;2023-07-28T04:39:15;12.37;;;5.10;;
7150;SDS011;3617;48.836;9.172;2023-07-28T04:41:41;6.50;;;4.37;;
7150;SDS011;3617;48.836;9.172;2023-07-28T04:44:07;9.63;;;3.73;;
7150;SDS011;3617;48.836;9.172;2023-07-28T04:46:33;6.87;;;4.07;;
7150;SDS011;3617;48.836;9.172;2023-07-28T04:48:59;7.97;;;3.87;;
7150;SDS011;3617;48.836;9.172;2023-07-28T04:51:25;5.33;;;3.43;;
7150;SDS011;3617;48.836;9.172;2023-07-28T04:53:51;8.00;;;3.73;;
7150;SDS011;3617;48.836;9.172;2023-07-28T04:56:17;9.43;;;4.17;;
7150;SDS011;3617;48.836;9.172;2023-07-28T04:58:43;5.20;;;3.10;;
7150;SDS011;3617;48.836;9.172;2023-07-28T05:01:09;6.60;;;3.37;;
7150;SDS011;3617;48.836;9.172;2023-07-28T05:03:37;4.80;;;3.00;;
7150;SDS011;3617;48.836;9.172;2023-07-28T05:06:03;4.87;;;2.83;;
7150;SDS011;3617;48.836;9.172;2023-07-28T05:08:30;4.20;;;2.50;;
7150;SDS011;3617;48.836;9.172;2023-07-28T05:10:56;4.57;;;2.90;;
7150;SDS011;3617;48.836;9.172;2023-07-28T05:13:22;4.10;;;2.33;;
7150;SDS011;3617;48.836;9.172;2023-07-28T05:15:48;3.60;;;2.50;;
7150;SDS011;3617;48.836;9.172;2023-07-28T05:18:14;4.23;;;2.77;;
7150;SDS011;3617;48.836;9.172;2023-07-28T05:20:40;4.23;;;2.60;;
7150;SDS011;3617;48.836;9.172;2023-07-28T05:23:06;3.43;;;2.33;;
7150;SDS011;3617;48.836;9.172;2023-07-28T05:25:32;4.90;;;2.63;;
7150;SDS011;3617;48.836;9.172;2023-07-28T05:27:58;5.30;;;2.63;;
7150;SDS011;3617;48.836;9.172;2023-07-28T05:30:24;4.67;;;2.80;;
7150;SDS011;3617;48.836;9.172;2023-07-28T05:32:50;5.03;;;2.63;;
7150;SDS011;3617;48.836;9.172;2023-07-28T05:35:18;3.70;;;2.83;;
7150;SDS011;3617;48.836;9.172;2023-07-28T05:37:45;4.33;;;2.63;;
7150;SDS011;3617;48.836;9.172;2023-07-28T05:40:11;3.40;;;2.47;;
7150;SDS011;3617;48.836;9.172;2023-07-28T05:42:37;4.47;;;2.70;;
7150;SDS011;3617;48.836;9.172;2023-07-28T05:45:04;3.87;;;2.80;;
7150;SDS011;3617;48.836;9.172;2023-07-28T05:47:30;3.77;;;2.87;;
7150;SDS011;3617;48.836;9.172;2023-07-28T05:49:56;4.17;;;3.00;;
7150;SDS011;3617;48.836;9.172;2023-07-28T05:52:22;4.90;;;3.00;;
7150;SDS011;3617;48.836;9.172;2023-07-28T05:54:48;3.93;;;2.93;;
7150;SDS011;3617;48.836;9.172;2023-07-28T05:57:14;4.77;;;3.10;;
7150;SDS011;3617;48.836;9.172;2023-07-28T05:59:40;5.13;;;2.63;;
7150;SDS011;3617;48.836;9.172;2023-07-28T06:02:06;4.93;;;3.10;;
7150;SDS011;3617;48.836;9.172;2023-07-28T06:04:32;3.47;;;2.60;;
7150;SDS011;3617;48.836;9.172;2023-07-28T06:06:58;3.30;;;2.60;;
7150;SDS011;3617;48.836;9.172;2023-07-28T06:09:24;5.23;;;3.13;;
7150;SDS011;3617;48.836;9.172;2023-07-28T06:11:50;3.97;;;2.80;;
7150;SDS011;3617;48.836;9.172;2023-07-28T06:14:16;4.67;;;3.03;;
7150;SDS011;3617;48.836;9.172;2023-07-28T06:16:42;3.90;;;2.63;;
7150;SDS011;3617;48.836;9.172;2023-07-28T06:19:08;3.78;;;2.67;;
7150;SDS011;3617;48.836;9.172;2023-07-28T06:21:33;4.00;;;2.87;;
7150;SDS011;3617;48.836;9.172;2023-07-28T06:23:59;3.43;;;2.37;;
7150;SDS011;3617;48.836;9.172;2023-07-28T06:26:25;3.33;;;2.50;;
7150;SDS011;3617;48.836;9.172;2023-07-28T06:28:51;4.30;;;3.07;;
7150;SDS011;3617;48.836;9.172;2023-07-28T06:31:17;3.97;;;2.80;;
7150;SDS011;3617;48.836;9.172;2023-07-28T06:33:43;4.10;;;2.63;;
7150;SDS011;3617;48.836;9.172;2023-07-28T06:36:09;8.23;;;3.47;;
7150;SDS011;3617;48.836;9.172;2023-07-28T06:38:36;5.37;;;3.37;;
7150;SDS011;3617;48.836;9.172;2023-07-28T06:41:03;7.03;;;3.07;;
7150;SDS011;3617;48.836;9.172;2023-07-28T06:43:29;5.10;;;3.15;;
7150;SDS011;3617;48.836;9.172;2023-07-28T06:45:55;4.63;;;2.63;;
7150;SDS011;3617;48.836;9.172;2023-07-28T06:48:21;4.33;;;2.50;;
7150;SDS011;3617;48.836;9.172;2023-07-28T06:50:47;5.23;;;3.10;;
7150;SDS011;3617;48.836;9.172;2023-07-28T06:53:13;5.07;;;3.10;;
7150;SDS011;3617;48.836;9.172;2023-07-28T06:55:39;7.00;;;3.33;;
7150;SDS011;3617;48.836;9.172;2023-07-28T06:58:05;4.27;;;3.10;;
7150;SDS011;3617;48.836;9.172;2023-07-28T07:00:32;4.10;;;3.10;;
7150;SDS011;3617;48.836;9.172;2023-07-28T07:02:58;8.50;;;2.78;;
7150;SDS011;3617;48.836;9.172;2023-07-28T07:05:24;6.20;;;3.53;;
7150;SDS011;3617;48.836;9.172;2023-07-28T07:07:50;5.33;;;2.73;;
7150;SDS011;3617;48.836;9.172;2023-07-28T07:10:17;4.47;;;2.65;;
7150;SDS011;3617;48.836;9.172;2023-07-28T07:12:43;3.80;;;2.72;;
7150;SDS011;3617;48.836;9.172;2023-07-28T07:15:09;4.38;;;2.83;;
7150;SDS011;3617;48.836;9.172;2023-07-28T07:17:36;6.07;;;3.15;;
7150;SDS011;3617;48.836;9.172;2023-07-28T07:20:03;5.22;;;3.05;;
7150;SDS011;3617;48.836;9.172;2023-07-28T07:22:29;6.18;;;3.70;;
7150;SDS011;3617;48.836;9.172;2023-07-28T07:24:55;4.55;;;2.95;;
7150;SDS011;3617;48.836;9.172;2023-07-28T07:27:23;4.38;;;2.47;;
7150;SDS011;3617;48.836;9.172;2023-07-28T07:29:49;4.53;;;2.90;;
7150;SDS011;3617;48.836;9.172;2023-07-28T07:32:15;4.88;;;3.00;;
7150;SDS011;3617;48.836;9.172;2023-07-28T07:34:42;3.97;;;2.63;;
7150;SDS011;3617;48.836;9.172;2023-07-28T07:37:08;3.38;;;2.33;;
7150;SDS011;3617;48.836;9.172;2023-07-28T07:39:35;5.93;;;3.20;;
7150;SDS011;3617;48.836;9.172;2023-07-28T07:42:01;3.40;;;2.45;;
7150;SDS011;3617;48.836;9.172;2023-07-28T07:44:27;4.00;;;2.35;;
7150;SDS011;3617;48.836;9.172;2023-07-28T07:46:53;3.58;;;2.15;;
7150;SDS011;3617;48.836;9.172;2023-07-28T07:49:19;3.58;;;2.63;;
7150;SDS011;3617;48.836;9.172;2023-07-28T07:51:45;4.88;;;2.70;;
7150;SDS011;3617;48.836;9.172;2023-07-28T07:54:11;2.72;;;2.33;;
7150;SDS011;3617;48.836;9.172;2023-07-28T07:56:40;4.07;;;2.50;;
7150;SDS011;3617;48.836;9.172;2023-07-28T07:59:06;4.13;;;2.38;;
7150;SDS011;3617;48.836;9.172;2023-07-28T08:01:33;3.13;;;2.33;;
7150;SDS011;3617;48.836;9.172;2023-07-28T08:03:59;5.85;;;2.47;;
7150;SDS011;3617;48.836;9.172;2023-07-28T08:06:25;4.38;;;2.28;;
7150;SDS011;3617;48.836;9.172;2023-07-28T08:08:51;4.03;;;2.45;;
7150;SDS011;3617;48.836;9.172;2023-07-28T08:11:18;3.22;;;2.03;;
7150;SDS011;3617;48.836;9.172;2023-07-28T08:13:44;4.63;;;2.67;;
7150;SDS011;3617;48.836;9.172;2023-07-28T08:16:13;3.20;;;2.15;;
7150;SDS011;3617;48.836;9.172;2023-07-28T08:18:39;2.65;;;2.05;;
7150;SDS011;3617;48.836;9.172;2023-07-28T08:21:05;2.78;;;1.83;;
7150;SDS011;3617;48.836;9.172;2023-07-28T08:23:31;4.50;;;2.85;;
7150;SDS011;3617;48.836;9.172;2023-07-28T08:25:57;4.53;;;3.55;;
7150;SDS011;3617;48.836;9.172;2023-07-28T08:28:23;4.97;;;3.42;;
7150;SDS011;3617;48.836;9.172;2023-07-28T08:30:53;5.38;;;3.17;;
7150;SDS011;3617;48.836;9.172;2023-07-28T08:33:20;4.95;;;3.30;;
7150;SDS011;3617;48.836;9.172;2023-07-28T08:35:47;4.82;;;3.05;;
7150;SDS011;3617;48.836;9.172;2023-07-28T08:38:13;5.70;;;3.42;;
7150;SDS011;3617;48.836;9.172;2023-07-28T08:40:39;5.75;;;3.33;;
7150;SDS011;3617;48.836;9.172;2023-07-28T08:43:05;4.25;;;3.00;;
7150;SDS011;3617;48.836;9.172;2023-07-28T08:45:31;5.97;;;3.25;;
7150;SDS011;3617;48.836;9.172;2023-07-28T08:47:57;7.17;;;3.57;;
7150;SDS011;3617;48.836;9.172;2023-07-28T08:50:23;3.65;;;2.90;;
7150;SDS011;3617;48.836;9.172;2023-07-28T08:52:49;7.10;;;3.08;;
7150;SDS011;3617;48.836;9.172;2023-07-28T08:55:16;5.03;;;3.58;;
7150;SDS011;3617;48.836;9.172;2023-07-28T08:57:42;4.93;;;2.88;;
7150;SDS011;3617;48.836;9.172;2023-07-28T09:00:11;4.53;;;3.08;;
7150;SDS011;3617;48.836;9.172;2023-07-28T09:02:38;3.55;;;2.70;;
7150;SDS011;3617;48.836;9.172;2023-07-28T09:05:05;4.50;;;2.95;;
7150;SDS011;3617;48.836;9.172;2023-07-28T09:07:37;5.18;;;2.97;;
7150;SDS011;3617;48.836;9.172;2023-07-28T09:10:03;6.97;;;3.17;;
7150;SDS011;3617;48.836;9.172;2023-07-28T09:12:31;4.88;;;3.08;;
7150;SDS011;3617;48.836;9.172;2023-07-28T09:14:57;3.42;;;2.47;;
7150;SDS011;3617;48.836;9.172;2023-07-28T09:17:23;3.78;;;2.50;;
7150;SDS011;3617;48.836;9.172;2023-07-28T09:19:49;5.00;;;2.72;;
7150;SDS011;3617;48.836;9.172;2023-07-28T09:22:16;5.30;;;3.20;;
7150;SDS011;3617;48.836;9.172;2023-07-28T09:24:43;5.03;;;2.67;;
7150;SDS011;3617;48.836;9.172;2023-07-28T09:27:09;2.92;;;2.28;;
7150;SDS011;3617;48.836;9.172;2023-07-28T09:29:47;4.53;;;2.55;;
7150;SDS011;3617;48.836;9.172;2023-07-28T09:32:14;3.15;;;2.15;;
7150;SDS011;3617;48.836;9.172;2023-07-28T09:34:40;2.90;;;2.28;;
7150;SDS011;3617;48.836;9.172;2023-07-28T09:37:06;3.38;;;2.03;;
7150;SDS011;3617;48.836;9.172;2023-07-28T09:39:32;2.38;;;1.63;;
7150;SDS011;3617;48.836;9.172;2023-07-28T09:41:59;2.10;;;1.73;;
7150;SDS011;3617;48.836;9.172;2023-07-28T09:44:25;4.57;;;1.73;;
7150;SDS011;3617;48.836;9.172;2023-07-28T09:46:52;2.13;;;1.65;;
7150;SDS011;3617;48.836;9.172;2023-07-28T09:49:22;1.88;;;1.52;;
7150;SDS011;3617;48.836;9.172;2023-07-28T09:51:53;4.22;;;2.13;;
7150;SDS011;3617;48.836;9.172;2023-07-28T09:54:25;2.50;;;1.75;;
7150;SDS011;3617;48.836;9.172;2023-07-28T09:56:58;3.15;;;1.95;;
7150;SDS011;3617;48.836;9.172;2023-07-28T09:59:28;2.50;;;1.92;;
7150;SDS011;3617;48.836;9.172;2023-07-28T10:01:55;2.70;;;1.83;;
7150;SDS011;3617;48.836;9.172;2023-07-28T10:04:22;2.25;;;1.75;;
7150;SDS011;3617;48.836;9.172;2023-07-28T10:06:48;2.25;;;1.63;;
7150;SDS011;3617;48.836;9.172;2023-07-28T10:09:14;2.38;;;1.80;;
7150;SDS011;3617;48.836;9.172;2023-07-28T10:11:41;2.42;;;1.80;;
7150;SDS011;3617;48.836;9.172;2023-07-28T10:14:07;2.60;;;1.65;;
7150;SDS011;3617;48.836;9.172;2023-07-28T10:16:39;3.28;;;1.95;;
7150;SDS011;3617;48.836;9.172;2023-07-28T10:19:05;2.40;;;1.83;;
7150;SDS011;3617;48.836;9.172;2023-07-28T10:21:31;3.53;;;1.75;;
7150;SDS011;3617;48.836;9.172;2023-07-28T10:24:04;2.55;;;1.75;;
7150;SDS011;3617;48.836;9.172;2023-07-28T10:26:31;2.17;;;1.27;;
7150;SDS011;3617;48.836;9.172;2023-07-28T10:29:10;1.67;;;1.30;;
7150;SDS011;3617;48.836;9.172;2023-07-28T10:31:36;2.03;;;1.20;;
7150;SDS011;3617;48.836;9.172;2023-07-28T10:34:02;2.95;;;1.73;;
7150;SDS011;3617;48.836;9.172;2023-07-28T10:39:02;3.13;;;1.92;;
7150;SDS011;3617;48.836;9.172;2023-07-28T10:41:37;2.67;;;1.83;;
7150;SDS011;3617;48.836;9.172;2023-07-28T10:44:04;2.83;;;1.90;;
7150;SDS011;3617;48.836;9.172;2023-07-28T10:46:30;2.60;;;1.80;;
7150;SDS011;3617;48.836;9.172;2023-07-28T10:48:57;4.00;;;2.30;;
7150;SDS011;3617;48.836;9.172;2023-07-28T10:51:30;5.78;;;1.63;;
7150;SDS011;3617;48.836;9.172;2023-07-28T10:53:59;3.28;;;2.08;;
7150;SDS011;3617;48.836;9.172;2023-07-28T10:56:25;2.28;;;1.90;;
7150;SDS011;3617;48.836;9.172;2023-07-28T10:58:58;2.80;;;1.85;;
7150;SDS011;3617;48.836;9.172;2023-07-28T11:01:30;3.53;;;1.90;;
7150;SDS011;3617;48.836;9.172;2023-07-28T11:04:04;2.30;;;1.83;;
7150;SDS011;3617;48.836;9.172;2023-07-28T11:06:31;2.63;;;1.70;;
7150;SDS011;3617;48.836;9.172;2023-07-28T11:08:57;5.07;;;2.40;;
7150;SDS011;3617;48.836;9.172;2023-07-28T11:11:23;2.25;;;1.90;;
7150;SDS011;3617;48.836;9.172;2023-07-28T11:13:50;2.33;;;1.88;;
7150;SDS011;3617;48.836;9.172;2023-07-28T11:16:16;2.33;;;1.85;;
7150;SDS011;3617;48.836;9.172;2023-07-28T11:18:42;2.28;;;1.50;;
7150;SDS011;3617;48.836;9.172;2023-07-28T11:21:08;2.15;;;1.60;;
7150;SDS011;3617;48.836;9.172;2023-07-28T11:23:34;1.55;;;1.25;;
7150;SDS011;3617;48.836;9.172;2023-07-28T11:26:00;2.47;;;1.60;;
7150;SDS011;3617;48.836;9.172;2023-07-28T11:28:26;1.77;;;1.23;;
7150;SDS011;3617;48.836;9.172;2023-07-28T11:30:53;1.60;;;1.40;;
7150;SDS011;3617;48.836;9.172;2023-07-28T11:33:19;1.48;;;0.93;;
7150;SDS011;3617;48.836;9.172;2023-07-28T11:35:45;1.02;;;0.60;;
7150;SDS011;3617;48.836;9.172;2023-07-28T11:38:12;0.60;;;0.60;;
7150;SDS011;3617;48.836;9.172;2023-07-28T11:40:38;0.50;;;0.50;;
7150;SDS011;3617;48.836;9.172;2023-07-28T11:43:04;1.00;;;0.70;;
7150;SDS011;3617;48.836;9.172;2023-07-28T11:45:30;1.58;;;1.00;;
7150;SDS011;3617;48.836;9.172;2023-07-28T11:48:03;0.73;;;0.70;;
7150;SDS011;3617;48.836;9.172;2023-07-28T11:50:37;0.65;;;0.65;;
7150;SDS011;3617;48.836;9.172;2023-07-28T11:53:04;1.45;;;0.85;;
7150;SDS011;3617;48.836;9.172;2023-07-28T11:55:31;1.98;;;0.73;;
7150;SDS011;3617;48.836;9.172;2023-07-28T11:57:57;1.42;;;0.88;;
7150;SDS011;3617;48.836;9.172;2023-07-28T12:00:32;2.70;;;1.10;;
7150;SDS011;3617;48.836;9.172;2023-07-28T12:03:03;1.13;;;0.90;;
7150;SDS011;3617;48.836;9.172;2023-07-28T12:05:29;0.80;;;0.70;;
7150;SDS011;3617;48.836;9.172;2023-07-28T12:07:55;0.85;;;0.70;;
7150;SDS011;3617;48.836;9.172;2023-07-28T12:10:21;2.80;;;1.00;;
7150;SDS011;3617;48.836;9.172;2023-07-28T12:12:49;1.58;;;0.90;;
7150;SDS011;3617;48.836;9.172;2023-07-28T12:15:22;1.25;;;0.93;;
7150;SDS011;3617;48.836;9.172;2023-07-28T12:20:39;1.40;;;1.10;;
7150;SDS011;3617;48.836;9.172;2023-07-28T12:23:06;3.42;;;1.20;;
7150;SDS011;3617;48.836;9.172;2023-07-28T12:25:33;1.17;;;0.90;;
7150;SDS011;3617;48.836;9.172;2023-07-28T12:28:00;1.13;;;0.70;;
7150;SDS011;3617;48.836;9.172;2023-07-28T12:30:26;2.55;;;1.10;;
7150;SDS011;3617;48.836;9.172;2023-07-28T12:32:52;0.77;;;0.75;;
7150;SDS011;3617;48.836;9.172;2023-07-28T12:35:18;1.25;;;0.85;;
7150;SDS011;3617;48.836;9.172;2023-07-28T12:37:44;2.00;;;1.20;;
7150;SDS011;3617;48.836;9.172;2023-07-28T12:40:10;11.38;;;1.58;;
7150;SDS011;3617;48.836;9.172;2023-07-28T12:42:36;1.60;;;1.02;;
7150;SDS011;3617;48.836;9.172;2023-07-28T12:45:03;0.93;;;0.80;;
7150;SDS011;3617;48.836;9.172;2023-07-28T12:47:31;2.17;;;1.10;;
7150;SDS011;3617;48.836;9.172;2023-07-28T12:49:57;1.40;;;1.00;;
7150;SDS011;3617;48.836;9.172;2023-07-28T12:52:23;1.38;;;1.10;;
7150;SDS011;3617;48.836;9.172;2023-07-28T12:54:49;2.47;;;1.13;;
7150;SDS011;3617;48.836;9.172;2023-07-28T12:57:15;1.67;;;1.20;;
7150;SDS011;3617;48.836;9.172;2023-07-28T12:59:41;1.45;;;1.10;;
7150;SDS011;3617;48.836;9.172;2023-07-28T13:02:07;1.30;;;1.10;;
7150;SDS011;3617;48.836;9.172;2023-07-28T13:04:33;1.48;;;1.13;;
7150;SDS011;3617;48.836;9.172;2023-07-28T13:06:59;1.50;;;1.20;;
7150;SDS011;3617;48.836;9.172;2023-07-28T13:09:24;1.42;;;1.13;;
7150;SDS011;3617;48.836;9.172;2023-07-28T13:11:50;1.38;;;0.85;;
7150;SDS011;3617;48.836;9.172;2023-07-28T13:14:16;1.35;;;1.15;;
7150;SDS011;3617;48.836;9.172;2023-07-28T13:16:42;1.40;;;1.20;;
7150;SDS011;3617;48.836;9.172;2023-07-28T13:19:09;1.55;;;1.10;;
7150;SDS011;3617;48.836;9.172;2023-07-28T13:21:35;1.95;;;1.40;;
7150;SDS011;3617;48.836;9.172;2023-07-28T13:24:01;1.92;;;1.45;;
7150;SDS011;3617;48.836;9.172;2023-07-28T13:26:28;3.08;;;1.60;;
7150;SDS011;3617;48.836;9.172;2023-07-28T13:28:54;2.75;;;1.30;;
7150;SDS011;3617;48.836;9.172;2023-07-28T13:31:21;2.30;;;1.63;;
7150;SDS011;3617;48.836;9.172;2023-07-28T13:33:47;2.00;;;1.50;;
7150;SDS011;3617;48.836;9.172;2023-07-28T13:36:13;2.55;;;1.80;;
7150;SDS011;3617;48.836;9.172;2023-07-28T13:38:39;2.53;;;1.80;;
7150;SDS011;3617;48.836;9.172;2023-07-28T13:41:06;2.20;;;1.58;;
7150;SDS011;3617;48.836;9.172;2023-07-28T13:43:32;2.40;;;1.48;;
7150;SDS011;3617;48.836;9.172;2023-07-28T13:46:05;2.42;;;1.70;;
7150;SDS011;3617;48.836;9.172;2023-07-28T13:48:31;2.30;;;1.73;;
7150;SDS011;3617;48.836;9.172;2023-07-28T13:50:57;3.15;;;2.17;;
7150;SDS011;3617;48.836;9.172;2023-07-28T13:53:23;1.80;;;1.58;;
7150;SDS011;3617;48.836;9.172;2023-07-28T13:55:49;4.05;;;1.88;;
7150;SDS011;3617;48.836;9.172;2023-07-28T13:58:15;4.30;;;1.67;;
7150;SDS011;3617;48.836;9.172;2023-07-28T14:00:42;3.35;;;1.77;;
7150;SDS011;3617;48.836;9.172;2023-07-28T14:03:08;1.95;;;1.50;;
7150;SDS011;3617;48.836;9.172;2023-07-28T14:05:34;2.25;;;1.70;;
7150;SDS011;3617;48.836;9.172;2023-07-28T14:08:00;3.20;;;1.90;;
7150;SDS011;3617;48.836;9.172;2023-07-28T14:10:26;3.65;;;2.22;;
7150;SDS011;3617;48.836;9.172;2023-07-28T14:12:53;3.72;;;2.13;;
7150;SDS011;3617;48.836;9.172;2023-07-28T14:15:19;3.40;;;1.92;;
7150;SDS011;3617;48.836;9.172;2023-07-28T14:17:45;2.30;;;1.65;;
7150;SDS011;3617;48.836;9.172;2023-07-28T14:20:11;3.47;;;1.88;;
7150;SDS011;3617;48.836;9.172;2023-07-28T14:22:37;3.40;;;2.00;;
7150;SDS011;3617;48.836;9.172;2023-07-28T14:25:03;2.45;;;1.80;;
7150;SDS011;3617;48.836;9.172;2023-07-28T14:27:29;3.70;;;2.00;;
7150;SDS011;3617;48.836;9.172;2023-07-28T14:29:55;2.42;;;1.90;;
7150;SDS011;3617;48.836;9.172;2023-07-28T14:32:21;3.15;;;1.88;;
7150;SDS011;3617;48.836;9.172;2023-07-28T14:34:47;4.28;;;1.63;;
7150;SDS011;3617;48.836;9.172;2023-07-28T14:37:13;2.53;;;1.95;;
7150;SDS011;3617;48.836;9.172;2023-07-28T14:39:39;3.20;;;2.15;;
7150;SDS011;3617;48.836;9.172;2023-07-28T14:42:05;3.03;;;2.20;;
7150;SDS011;3617;48.836;9.172;2023-07-28T14:44:31;3.10;;;2.10;;
7150;SDS011;3617;48.836;9.172;2023-07-28T14:46:57;2.10;;;1.60;;
7150;SDS011;3617;48.836;9.172;2023-07-28T14:49:23;2.88;;;1.90;;
7150;SDS011;3617;48.836;9.172;2023-07-28T14:51:52;3.08;;;2.13;;
7150;SDS011;3617;48.836;9.172;2023-07-28T14:54:18;4.00;;;2.30;;
7150;SDS011;3617;48.836;9.172;2023-07-28T14:56:44;3.13;;;2.10;;
7150;SDS011;3617;48.836;9.172;2023-07-28T14:59:10;2.75;;;2.28;;
7150;SDS011;3617;48.836;9.172;2023-07-28T15:01:36;5.15;;;2.38;;
7150;SDS011;3617;48.836;9.172;2023-07-28T15:04:02;4.10;;;1.95;;
7150;SDS011;3617;48.836;9.172;2023-07-28T15:06:29;3.80;;;2.42;;
7150;SDS011;3617;48.836;9.172;2023-07-28T15:08:55;3.67;;;2.35;;
7150;SDS011;3617;48.836;9.172;2023-07-28T15:11:21;3.33;;;2.13;;
7150;SDS011;3617;48.836;9.172;2023-07-28T15:13:48;3.53;;;2.50;;
7150;SDS011;3617;48.836;9.172;2023-07-28T15:16:14;4.53;;;2.30;;